createdAt,value
2018-09-19T00:02:06.777Z,15.40
2018-09-19T00:04:34.715Z,15.40
2018-09-19T00:07:02.665Z,15.30
2018-09-19T00:09:30.773Z,15.30
2018-09-19T00:11:58.849Z,15.30
2018-09-19T00:14:26.905Z,15.40
2018-09-19T00:16:54.876Z,15.50
2018-09-19T00:19:22.793Z,15.60
2018-09-19T00:21:50.827Z,15.60
2018-09-19T00:24:18.687Z,15.60
2018-09-19T00:26:46.660Z,15.50
2018-09-19T00:29:14.664Z,15.60
2018-09-19T00:31:42.787Z,15.50
2018-09-19T00:34:10.712Z,15.60
2018-09-19T00:36:38.661Z,15.60
2018-09-19T00:39:08.021Z,15.70
2018-09-19T00:41:35.916Z,15.80
2018-09-19T00:44:03.739Z,15.90
2018-09-19T00:46:31.804Z,16.10
2018-09-19T00:48:59.736Z,16.20
2018-09-19T00:51:27.697Z,16.20
2018-09-19T00:53:55.665Z,16.20
2018-09-19T00:56:23.597Z,16.20
2018-09-19T00:58:51.448Z,16.20
2018-09-19T01:01:19.401Z,16.10
2018-09-19T01:03:47.465Z,16.00
2018-09-19T01:06:15.291Z,15.90
2018-09-19T01:08:43.382Z,15.80
2018-09-19T01:11:11.428Z,15.70
2018-09-19T01:13:39.399Z,15.60
2018-09-19T01:16:07.195Z,15.50
2018-09-19T01:18:35.126Z,15.50
2018-09-19T01:21:03.211Z,15.60
2018-09-19T01:23:31.134Z,15.60
2018-09-19T01:25:59.064Z,15.60
2018-09-19T01:28:27.006Z,15.60
2018-09-19T01:30:54.873Z,15.50
2018-09-19T01:33:22.912Z,15.50
2018-09-19T01:35:50.835Z,15.50
2018-09-19T01:38:18.757Z,15.60
2018-09-19T01:40:46.595Z,15.60
2018-09-19T01:43:14.596Z,15.60
2018-09-19T01:45:42.475Z,15.60
2018-09-19T01:48:10.488Z,15.60
2018-09-19T01:50:38.443Z,15.50
2018-09-19T01:53:06.665Z,15.40
2018-09-19T01:55:34.618Z,15.30
2018-09-19T01:58:02.542Z,15.20
2018-09-19T02:00:30.533Z,15.10
2018-09-19T02:02:58.529Z,15.10
2018-09-19T02:05:26.351Z,15.10
2018-09-19T02:07:54.225Z,15.00
2018-09-19T02:10:22.213Z,15.00
2018-09-19T02:12:50.219Z,15.00
2018-09-19T02:15:18.277Z,15.00
2018-09-19T02:17:46.302Z,15.00
2018-09-19T02:20:14.343Z,14.90
2018-09-19T02:22:42.263Z,14.90
2018-09-19T02:25:10.280Z,14.90
2018-09-19T02:27:38.263Z,14.80
2018-09-19T02:30:06.250Z,14.60
2018-09-19T02:32:34.290Z,14.60
2018-09-19T02:35:02.220Z,14.50
2018-09-19T02:37:30.165Z,14.60
2018-09-19T02:39:58.135Z,14.50
2018-09-19T02:42:26.066Z,14.50
2018-09-19T02:44:54.298Z,14.40
2018-09-19T02:47:22.294Z,14.40
2018-09-19T02:49:50.240Z,14.40
2018-09-19T02:52:18.152Z,14.50
2018-09-19T02:54:46.175Z,14.70
2018-09-19T02:57:14.083Z,14.70
2018-09-19T02:59:42.198Z,14.80
2018-09-19T03:02:10.226Z,14.80
2018-09-19T03:04:38.086Z,14.70
2018-09-19T03:07:05.967Z,14.80
2018-09-19T03:09:34.030Z,14.70
2018-09-19T03:12:02.323Z,14.60
2018-09-19T03:14:30.149Z,14.60
2018-09-19T03:16:58.111Z,14.50
2018-09-19T03:19:25.988Z,14.50
2018-09-19T03:21:53.872Z,14.40
2018-09-19T03:24:21.743Z,14.40
2018-09-19T03:26:49.665Z,14.40
2018-09-19T03:29:17.817Z,14.40
2018-09-19T03:31:45.991Z,14.30
2018-09-19T03:34:13.913Z,14.30
2018-09-19T03:36:41.867Z,14.20
2018-09-19T03:39:11.051Z,14.20
2018-09-19T03:41:40.502Z,14.20
2018-09-19T03:44:08.955Z,14.20
2018-09-19T03:46:37.848Z,14.20
2018-09-19T03:49:06.708Z,14.20
2018-09-19T03:51:34.696Z,14.20
2018-09-19T03:54:02.762Z,14.20
2018-09-19T03:56:30.754Z,14.10
2018-09-19T03:58:58.675Z,14.10
2018-09-19T04:01:26.631Z,14.10
2018-09-19T04:03:54.622Z,14.10
2018-09-19T04:06:22.555Z,14.10
2018-09-19T04:08:50.400Z,14.00
2018-09-19T04:11:18.348Z,14.00
2018-09-19T04:13:46.290Z,13.90
2018-09-19T04:16:14.451Z,13.90
2018-09-19T04:18:42.340Z,13.90
2018-09-19T04:21:10.537Z,13.90
2018-09-19T04:23:38.482Z,13.90
2018-09-19T04:26:06.755Z,13.90
2018-09-19T04:28:34.844Z,13.90
2018-09-19T04:31:03.085Z,13.90
2018-09-19T04:33:31.032Z,13.90
2018-09-19T04:35:58.954Z,13.90
2018-09-19T04:38:26.959Z,13.90
2018-09-19T04:40:54.942Z,13.90
2018-09-19T04:43:23.069Z,13.90
2018-09-19T04:45:51.043Z,13.90
2018-09-19T04:48:19.056Z,13.80
2018-09-19T04:50:46.987Z,13.90
2018-09-19T04:53:14.960Z,14.00
2018-09-19T04:55:43.129Z,14.00
2018-09-19T04:58:11.046Z,14.00
2018-09-19T05:00:39.072Z,14.10
2018-09-19T05:03:06.982Z,14.20
2018-09-19T05:05:34.827Z,14.30
2018-09-19T05:08:03.125Z,14.40
2018-09-19T05:10:31.094Z,14.50
2018-09-19T05:12:59.081Z,14.60
2018-09-19T05:15:27.220Z,14.60
2018-09-19T05:17:55.745Z,14.70
2018-09-19T05:20:23.883Z,14.80
2018-09-19T05:22:52.392Z,14.90
2018-09-19T05:25:20.343Z,15.00
2018-09-19T05:27:48.314Z,15.10
2018-09-19T05:30:16.222Z,15.30
2018-09-19T05:32:44.240Z,15.50
2018-09-19T05:35:12.213Z,15.70
2018-09-19T05:37:40.222Z,16.00
2018-09-19T05:40:08.139Z,16.10
2018-09-19T05:42:35.999Z,16.20
2018-09-19T05:45:04.490Z,16.20
2018-09-19T05:47:32.421Z,16.20
2018-09-19T05:50:00.415Z,16.30
2018-09-19T05:52:28.327Z,16.10
2018-09-19T05:54:57.677Z,16.10
2018-09-19T05:57:25.941Z,16.00
2018-09-19T05:59:54.076Z,15.80
2018-09-19T06:02:22.181Z,15.80
2018-09-19T06:04:50.322Z,15.80
2018-09-19T06:07:18.186Z,15.80
2018-09-19T06:09:46.516Z,15.70
2018-09-19T06:12:14.545Z,15.70
2018-09-19T06:14:42.635Z,15.70
2018-09-19T06:17:10.510Z,15.70
2018-09-19T06:19:38.360Z,15.60
2018-09-19T06:22:06.575Z,15.60
2018-09-19T06:24:34.532Z,15.60
2018-09-19T06:27:02.508Z,15.60
2018-09-19T06:29:30.392Z,15.50
2018-09-19T06:31:58.316Z,15.50
2018-09-19T06:34:26.895Z,15.40
2018-09-19T06:36:54.903Z,15.50
2018-09-19T06:39:22.836Z,15.60
2018-09-19T06:41:51.021Z,15.60
2018-09-19T06:44:18.940Z,15.60
2018-09-19T06:46:47.825Z,15.60
2018-09-19T06:49:15.806Z,15.40
2018-09-19T06:51:43.727Z,15.40
2018-09-19T06:54:12.036Z,15.40
2018-09-19T06:56:40.042Z,15.30
2018-09-19T06:59:07.925Z,15.20
2018-09-19T07:01:35.985Z,15.20
2018-09-19T07:04:03.864Z,15.10
2018-09-19T07:06:31.939Z,15.20
2018-09-19T07:08:59.954Z,15.30
2018-09-19T07:11:27.826Z,15.30
2018-09-19T07:13:55.686Z,15.40
2018-09-19T07:16:23.715Z,15.60
2018-09-19T07:18:51.885Z,15.70
2018-09-19T07:21:19.936Z,15.60
2018-09-19T07:23:47.851Z,15.70
2018-09-19T07:26:15.713Z,15.70
2018-09-19T07:28:43.631Z,15.80
2018-09-19T07:31:11.868Z,15.80
2018-09-19T07:33:39.762Z,15.80
2018-09-19T07:36:07.941Z,15.80
2018-09-19T07:38:35.800Z,15.80
2018-09-19T07:41:03.712Z,15.90
2018-09-19T07:43:31.752Z,15.90
2018-09-19T07:45:59.751Z,16.00
2018-09-19T07:48:27.645Z,16.10
2018-09-19T07:50:55.502Z,16.20
2018-09-19T07:53:29.871Z,16.20
2018-09-19T07:55:57.766Z,16.20
2018-09-19T07:58:25.672Z,16.30
2018-09-19T08:00:53.784Z,16.30
2018-09-19T08:03:21.702Z,16.40
2018-09-19T08:05:49.542Z,16.50
2018-09-19T08:08:18.028Z,16.60
2018-09-19T08:10:46.098Z,16.70
2018-09-19T08:13:13.937Z,16.90
2018-09-19T08:15:42.051Z,17.00
2018-09-19T08:18:10.233Z,17.20
2018-09-19T08:20:38.753Z,17.30
2018-09-19T08:23:07.709Z,17.40
2018-09-19T08:25:35.590Z,17.50
2018-09-19T08:28:03.647Z,17.60
2018-09-19T08:30:31.542Z,17.70
2018-09-19T08:32:59.521Z,18.00
2018-09-19T08:35:27.693Z,18.00
2018-09-19T08:37:55.618Z,18.00
2018-09-19T08:40:23.584Z,18.00
2018-09-19T08:42:51.649Z,18.20
2018-09-19T08:45:20.111Z,18.30
2018-09-19T08:47:48.096Z,18.20
2018-09-19T08:50:16.136Z,18.20
2018-09-19T08:52:44.025Z,18.20
2018-09-19T08:55:11.954Z,18.20
2018-09-19T08:57:39.979Z,18.20
2018-09-19T09:00:09.112Z,18.30
2018-09-19T09:02:37.137Z,18.30
2018-09-19T09:05:05.034Z,18.30
2018-09-19T09:07:32.951Z,18.30
2018-09-19T09:10:00.915Z,18.40
2018-09-19T09:12:28.949Z,18.50
2018-09-19T09:14:57.035Z,18.70
2018-09-19T09:17:25.008Z,19.00
2018-09-19T09:19:53.090Z,19.30
2018-09-19T09:22:20.907Z,19.80
2018-09-19T09:24:49.211Z,20.10
2018-09-19T09:27:17.190Z,20.30
2018-09-19T09:29:45.251Z,20.70
2018-09-19T09:32:13.081Z,20.90
2018-09-19T09:34:41.069Z,21.20
2018-09-19T09:37:09.515Z,21.40
2018-09-19T09:39:37.636Z,21.70
2018-09-19T09:42:05.592Z,21.80
2018-09-19T09:44:33.603Z,22.00
2018-09-19T09:47:01.530Z,22.30
2018-09-19T09:49:29.401Z,22.40
2018-09-19T09:51:57.344Z,22.40
2018-09-19T09:54:25.340Z,22.60
2018-09-19T09:56:53.239Z,22.70
2018-09-19T09:59:21.217Z,22.80
2018-09-19T10:01:49.190Z,23.00
2018-09-19T10:04:17.119Z,23.20
2018-09-19T10:06:45.054Z,23.30
2018-09-19T10:09:13.156Z,23.50
2018-09-19T10:11:41.160Z,23.50
2018-09-19T10:14:09.139Z,23.80
2018-09-19T10:16:37.081Z,23.90
2018-09-19T10:19:05.057Z,24.00
2018-09-19T10:21:33.169Z,24.10
2018-09-19T10:24:01.107Z,24.10
2018-09-19T10:26:29.052Z,24.30
2018-09-19T10:28:56.361Z,24.30
2018-09-19T10:31:23.621Z,24.50
2018-09-19T10:33:51.027Z,24.60
2018-09-19T10:36:19.007Z,24.70
2018-09-19T10:38:46.975Z,24.80
2018-09-19T10:41:14.970Z,24.90
2018-09-19T10:43:43.220Z,25.00
2018-09-19T10:46:11.322Z,25.20
2018-09-19T10:48:39.073Z,25.30
2018-09-19T10:51:07.110Z,25.50
2018-09-19T10:53:35.043Z,25.50
2018-09-19T10:56:03.189Z,25.60
2018-09-19T10:58:30.979Z,25.60
2018-09-19T11:00:58.912Z,25.60
2018-09-19T11:05:58.300Z,25.70
2018-09-19T11:08:25.814Z,25.90
2018-09-19T11:10:53.355Z,25.90
2018-09-19T11:13:21.164Z,26.00
2018-09-19T11:15:48.691Z,26.10
2018-09-19T11:18:16.222Z,26.30
2018-09-19T11:20:43.849Z,26.30
2018-09-19T11:23:11.716Z,26.40
2018-09-19T11:25:39.212Z,26.50
2018-09-19T11:28:06.871Z,26.50
2018-09-19T11:30:34.667Z,26.60
2018-09-19T11:33:02.221Z,26.70
2018-09-19T11:35:29.879Z,26.80
2018-09-19T11:37:57.572Z,26.80
2018-09-19T11:40:25.197Z,26.90
2018-09-19T11:42:52.709Z,26.90
2018-09-19T11:45:20.493Z,27.00
2018-09-19T11:47:48.037Z,27.00
2018-09-19T11:50:15.564Z,27.00
2018-09-19T11:52:43.251Z,27.10
2018-09-19T11:55:10.790Z,27.20
2018-09-19T11:57:38.393Z,27.30
2018-09-19T12:00:06.458Z,27.40
2018-09-19T12:02:34.077Z,27.50
2018-09-19T12:05:01.598Z,27.50
2018-09-19T12:07:29.428Z,27.60
2018-09-19T12:09:57.156Z,27.70
2018-09-19T12:12:24.680Z,27.70
2018-09-19T12:14:52.191Z,27.70
2018-09-19T12:17:19.853Z,27.70
2018-09-19T12:19:47.504Z,27.70
2018-09-19T12:22:15.100Z,27.70
2018-09-19T12:24:42.598Z,27.80
2018-09-19T12:27:10.194Z,27.80
2018-09-19T12:29:37.731Z,27.90
2018-09-19T12:32:05.475Z,28.00
2018-09-19T12:34:33.019Z,27.90
2018-09-19T12:37:00.657Z,28.00
2018-09-19T12:39:28.337Z,28.10
2018-09-19T12:41:55.887Z,28.20
2018-09-19T12:44:23.477Z,28.20
2018-09-19T12:46:50.986Z,28.30
2018-09-19T12:49:18.881Z,28.40
2018-09-19T12:51:46.374Z,28.40
2018-09-19T12:54:13.971Z,28.40
2018-09-19T12:56:41.748Z,28.50
2018-09-19T12:59:09.388Z,28.60
2018-09-19T13:01:37.051Z,28.50
2018-09-19T13:04:04.683Z,28.60
2018-09-19T13:06:32.266Z,28.60
2018-09-19T13:08:59.898Z,28.50
2018-09-19T13:11:27.465Z,28.60
2018-09-19T13:13:55.048Z,28.70
2018-09-19T13:16:22.674Z,28.70
2018-09-19T13:18:50.157Z,28.80
2018-09-19T13:21:17.687Z,28.70
2018-09-19T13:23:45.369Z,28.70
2018-09-19T13:26:15.066Z,28.80
2018-09-19T13:28:42.900Z,28.70
2018-09-19T13:31:10.415Z,28.80
2018-09-19T13:33:38.325Z,28.80
2018-09-19T13:36:05.867Z,28.90
2018-09-19T13:38:33.369Z,28.80
2018-09-19T13:41:00.919Z,28.80
2018-09-19T13:43:28.563Z,28.80
2018-09-19T13:45:56.609Z,28.80
2018-09-19T13:48:24.730Z,28.70
2018-09-19T13:51:00.550Z,28.70
2018-09-19T13:53:28.165Z,28.70
2018-09-19T13:55:55.773Z,28.70
2018-09-19T13:58:23.517Z,28.70
2018-09-19T14:00:53.219Z,28.90
2018-09-19T14:03:20.762Z,28.90
2018-09-19T14:05:48.266Z,28.80
2018-09-19T14:08:16.062Z,28.80
2018-09-19T14:10:43.614Z,28.80
2018-09-19T14:13:11.290Z,28.80
2018-09-19T14:15:39.463Z,28.80
2018-09-19T14:18:07.723Z,28.70
2018-09-19T14:20:35.229Z,28.60
2018-09-19T14:23:03.324Z,28.60
2018-09-19T14:25:32.218Z,28.60
2018-09-19T14:28:00.050Z,28.60
2018-09-19T14:30:27.762Z,28.70
2018-09-19T14:32:55.678Z,28.70
2018-09-19T14:35:23.629Z,28.70
2018-09-19T14:37:51.345Z,28.70
2018-09-19T14:40:18.957Z,28.60
2018-09-19T14:42:46.503Z,28.60
2018-09-19T14:45:14.176Z,28.70
2018-09-19T14:47:41.877Z,28.60
2018-09-19T14:50:09.566Z,28.70
2018-09-19T14:52:37.334Z,28.50
2018-09-19T14:55:05.037Z,28.50
2018-09-19T14:57:32.887Z,28.50
2018-09-19T15:00:00.456Z,28.50
2018-09-19T15:02:28.135Z,28.50
2018-09-19T15:04:55.767Z,28.50
2018-09-19T15:07:23.485Z,28.50
2018-09-19T15:09:51.089Z,28.40
2018-09-19T15:12:18.807Z,28.30
2018-09-19T15:14:46.806Z,28.30
2018-09-19T15:17:14.468Z,28.40
2018-09-19T15:19:42.389Z,28.40
2018-09-19T15:22:10.070Z,28.30
2018-09-19T15:24:38.211Z,28.20
2018-09-19T15:27:06.737Z,28.20
2018-09-19T15:29:34.455Z,28.10
2018-09-19T15:32:02.425Z,28.00
2018-09-19T15:34:30.187Z,27.90
2018-09-19T15:36:58.128Z,27.80
2018-09-19T15:39:26.342Z,27.80
2018-09-19T15:41:54.097Z,27.70
2018-09-19T15:44:21.872Z,27.50
2018-09-19T15:46:49.484Z,27.60
2018-09-19T15:49:25.187Z,27.40
2018-09-19T15:51:52.935Z,27.40
2018-09-19T15:54:20.607Z,27.30
2018-09-19T15:56:48.185Z,27.20
2018-09-19T15:59:16.132Z,27.10
2018-09-19T16:01:43.828Z,27.10
2018-09-19T16:04:11.869Z,27.10
2018-09-19T16:06:39.709Z,27.00
2018-09-19T16:09:09.069Z,26.90
2018-09-19T16:11:36.806Z,26.80
2018-09-19T16:14:04.452Z,26.70
2018-09-19T16:16:32.023Z,26.60
2018-09-19T16:18:59.677Z,26.50
2018-09-19T16:21:27.287Z,26.40
2018-09-19T16:23:54.859Z,26.30
2018-09-19T16:26:22.492Z,26.20
2018-09-19T16:28:50.072Z,26.10
2018-09-19T16:31:17.808Z,26.00
2018-09-19T16:33:45.375Z,26.00
2018-09-19T16:36:13.100Z,25.90
2018-09-19T16:38:41.386Z,25.70
2018-09-19T16:41:09.799Z,25.70
2018-09-19T16:43:41.451Z,25.60
2018-09-19T16:46:09.245Z,25.40
2018-09-19T16:48:37.902Z,25.30
2018-09-19T16:51:05.671Z,25.20
2018-09-19T16:53:33.249Z,25.10
2018-09-19T16:56:00.967Z,25.00
2018-09-19T16:58:28.750Z,24.90
2018-09-19T17:00:56.597Z,24.70
2018-09-19T17:03:24.319Z,24.70
2018-09-19T17:05:52.113Z,24.50
2018-09-19T17:08:19.750Z,24.50
2018-09-19T17:10:47.319Z,24.30
2018-09-19T17:13:15.105Z,24.20
2018-09-19T17:15:42.847Z,24.10
2018-09-19T17:18:13.655Z,24.10
2018-09-19T17:20:41.980Z,23.90
2018-09-19T17:23:10.743Z,23.90
2018-09-19T17:25:39.598Z,23.80
2018-09-19T17:28:07.360Z,23.70
2018-09-19T17:30:35.358Z,23.50
2018-09-19T17:33:03.285Z,23.50
2018-09-19T17:35:30.957Z,23.30
2018-09-19T17:37:58.807Z,23.30
2018-09-19T17:40:26.490Z,23.20
2018-09-19T17:42:54.210Z,23.10
2018-09-19T17:45:21.846Z,23.00
2018-09-19T17:47:49.699Z,23.00
2018-09-19T17:50:17.330Z,22.90
2018-09-19T17:52:46.288Z,22.90
2018-09-19T17:55:14.429Z,22.80
2018-09-19T17:57:41.990Z,22.80
2018-09-19T18:00:10.134Z,22.70
2018-09-19T18:02:38.450Z,22.60
2018-09-19T18:05:06.472Z,22.60
2018-09-19T18:07:34.097Z,22.50
2018-09-19T18:10:02.273Z,22.50
2018-09-19T18:12:31.233Z,22.40
2018-09-19T18:14:59.268Z,22.40
2018-09-19T18:17:27.624Z,22.30
2018-09-19T18:19:55.516Z,22.30
2018-09-19T18:22:23.285Z,22.20
2018-09-19T18:24:50.944Z,22.20
2018-09-19T18:27:18.934Z,22.10
2018-09-19T18:29:46.474Z,22.10
2018-09-19T18:32:14.472Z,22.00
2018-09-19T18:34:42.121Z,21.90
2018-09-19T18:37:09.750Z,21.90
2018-09-19T18:39:37.577Z,21.80
2018-09-19T18:42:05.279Z,21.70
2018-09-19T18:44:32.948Z,21.60
2018-09-19T18:47:00.640Z,21.60
2018-09-19T18:49:28.266Z,21.50
2018-09-19T18:51:55.873Z,21.40
2018-09-19T18:54:23.449Z,21.30
2018-09-19T18:56:52.076Z,21.30
2018-09-19T18:59:19.873Z,21.20
2018-09-19T19:01:47.596Z,21.20
2018-09-19T19:04:15.418Z,21.20
2018-09-19T19:06:43.356Z,21.10
2018-09-19T19:09:11.936Z,21.10
2018-09-19T19:11:39.607Z,21.10
2018-09-19T19:14:07.237Z,21.10
2018-09-19T19:16:35.085Z,21.10
2018-09-19T19:19:02.687Z,21.10
2018-09-19T19:21:30.866Z,21.10
2018-09-19T19:23:58.477Z,21.10
2018-09-19T19:26:27.225Z,21.10
2018-09-19T19:28:54.932Z,21.10
2018-09-19T19:31:22.830Z,21.10
2018-09-19T19:33:50.953Z,21.10
2018-09-19T19:36:20.674Z,21.10
2018-09-19T19:38:48.500Z,21.10
2018-09-19T19:41:16.294Z,21.00
2018-09-19T19:43:44.034Z,21.00
2018-09-19T19:46:11.828Z,20.90
2018-09-19T19:48:39.831Z,20.90
2018-09-19T19:51:09.623Z,20.90
2018-09-19T19:53:37.310Z,20.90
2018-09-19T19:56:05.348Z,20.80
2018-09-19T19:58:33.227Z,20.80
2018-09-19T20:01:00.911Z,20.90
2018-09-19T20:03:28.548Z,20.90
2018-09-19T20:05:56.234Z,20.80
2018-09-19T20:08:23.903Z,20.80
2018-09-19T20:10:51.826Z,20.80
2018-09-19T20:13:19.458Z,20.80
2018-09-19T20:15:47.147Z,20.80
2018-09-19T20:18:14.893Z,20.70
2018-09-19T20:20:43.584Z,20.70
2018-09-19T20:23:11.333Z,20.70
2018-09-19T20:25:38.980Z,20.60
2018-09-19T20:28:07.050Z,20.60
2018-09-19T20:30:34.879Z,20.50
2018-09-19T20:33:02.538Z,20.50
2018-09-19T20:35:30.541Z,20.40
2018-09-19T20:37:58.385Z,20.30
2018-09-19T20:40:28.109Z,20.30
2018-09-19T20:42:55.773Z,20.20
2018-09-19T20:45:24.074Z,20.20
2018-09-19T20:47:57.310Z,20.20
2018-09-19T20:50:25.001Z,20.20
2018-09-19T20:52:52.609Z,20.00
2018-09-19T20:55:20.342Z,19.80
2018-09-19T20:57:48.016Z,19.60
2018-09-19T21:00:16.755Z,19.50
2018-09-19T21:02:44.534Z,19.40
2018-09-19T21:05:12.125Z,19.40
2018-09-19T21:07:39.856Z,19.30
2018-09-19T21:10:07.442Z,19.20
2018-09-19T21:12:35.628Z,19.10
2018-09-19T21:17:36.978Z,19.00
2018-09-19T21:20:04.897Z,19.10
2018-09-19T21:22:33.023Z,19.10
2018-09-19T21:25:00.706Z,19.10
2018-09-19T21:27:28.287Z,19.20
2018-09-19T21:29:56.003Z,19.20
2018-09-19T21:32:23.694Z,19.30
2018-09-19T21:34:51.287Z,19.40
2018-09-19T21:37:18.822Z,19.50
2018-09-19T21:39:46.505Z,19.50
2018-09-19T21:42:14.878Z,19.60
2018-09-19T21:44:42.422Z,19.70
2018-09-19T21:47:10.145Z,19.60
2018-09-19T21:49:37.953Z,19.70
2018-09-19T21:52:05.946Z,19.70
2018-09-19T21:54:33.457Z,19.60
2018-09-19T21:57:01.154Z,19.50
2018-09-19T21:59:28.971Z,19.40
2018-09-19T22:01:58.273Z,19.40
2018-09-19T22:04:25.874Z,19.50
2018-09-19T22:06:57.615Z,19.40
2018-09-19T22:09:25.305Z,19.30
2018-09-19T22:11:52.955Z,19.20
2018-09-19T22:14:20.516Z,19.10
2018-09-19T22:16:48.724Z,19.10
2018-09-19T22:19:16.456Z,19.10
2018-09-19T22:21:44.083Z,19.10
2018-09-19T22:24:11.713Z,19.10
2018-09-19T22:26:39.631Z,19.10
2018-09-19T22:29:07.549Z,19.00
2018-09-19T22:31:35.268Z,18.90
2018-09-19T22:34:02.940Z,18.80
2018-09-19T22:36:30.504Z,18.60
2018-09-19T22:38:58.143Z,18.50
2018-09-19T22:41:25.854Z,18.30
2018-09-19T22:43:53.534Z,18.10
2018-09-19T22:46:21.575Z,18.00
2018-09-19T22:48:49.537Z,17.90
2018-09-19T22:51:17.221Z,17.70
2018-09-19T22:53:45.179Z,17.70
2018-09-19T22:56:13.106Z,17.50
2018-09-19T22:58:40.628Z,17.50
2018-09-19T23:01:08.292Z,17.50
2018-09-19T23:03:35.933Z,17.40
2018-09-19T23:06:03.644Z,17.40
2018-09-19T23:08:31.193Z,17.40
2018-09-19T23:10:58.777Z,17.40
2018-09-19T23:13:26.334Z,17.30
2018-09-19T23:15:53.955Z,17.40
2018-09-19T23:18:21.496Z,17.40
2018-09-19T23:20:49.053Z,17.60
2018-09-19T23:23:16.864Z,17.70
2018-09-19T23:25:44.560Z,17.80
2018-09-19T23:28:12.081Z,17.80
2018-09-19T23:30:39.769Z,17.80
2018-09-19T23:33:07.352Z,17.90
2018-09-19T23:35:35.917Z,17.90
2018-09-19T23:38:04.274Z,18.00
2018-09-19T23:40:31.836Z,18.00
2018-09-19T23:42:59.398Z,18.00
2018-09-19T23:45:27.025Z,18.00
2018-09-19T23:47:54.606Z,18.10
2018-09-19T23:50:22.224Z,18.20
2018-09-19T23:52:49.731Z,18.20
2018-09-19T23:55:17.269Z,18.20
2018-09-19T23:57:44.957Z,18.20
